createdAt,value
2022-09-02T00:01:24.591Z,52.54
2022-09-02T00:06:14.742Z,52.66
2022-09-02T00:11:06.694Z,53.30
2022-09-02T00:16:00.252Z,52.94
2022-09-02T00:20:51.261Z,53.28
2022-09-02T00:25:42.325Z,53.96
2022-09-02T00:30:33.149Z,53.61
2022-09-02T00:35:26.277Z,54.17
2022-09-02T00:40:17.238Z,54.15
2022-09-02T00:45:08.748Z,55.10
2022-09-02T00:49:59.065Z,54.87
2022-09-02T00:54:53.160Z,56.78
2022-09-02T00:59:49.703Z,55.60
2022-09-02T01:04:39.599Z,56.41
2022-09-02T01:09:32.350Z,56.28
2022-09-02T01:14:28.585Z,55.82
2022-09-02T01:19:23.285Z,56.20
2022-09-02T01:24:16.260Z,56.38
2022-09-02T01:29:06.361Z,56.70
2022-09-02T01:33:56.793Z,56.22
2022-09-02T01:38:48.327Z,56.57
2022-09-02T01:43:41.426Z,56.65
2022-09-02T01:48:32.295Z,57.06
2022-09-02T01:53:24.459Z,57.63
2022-09-02T01:58:16.389Z,57.37
2022-09-02T02:03:09.364Z,57.65
2022-09-02T02:07:59.957Z,58.51
2022-09-02T02:12:50.569Z,57.65
2022-09-02T02:17:44.740Z,55.25
2022-09-02T02:22:38.539Z,56.40
2022-09-02T02:27:29.275Z,56.44
2022-09-02T02:32:26.520Z,56.85
2022-09-02T02:37:21.092Z,56.92
2022-09-02T02:42:17.634Z,57.16
2022-09-02T02:47:08.566Z,57.42
2022-09-02T02:51:59.382Z,57.77
2022-09-02T02:56:50.931Z,57.62
2022-09-02T03:01:44.551Z,58.11
2022-09-02T03:06:36.363Z,58.18
2022-09-02T03:11:28.634Z,58.24
2022-09-02T03:16:20.479Z,58.53
2022-09-02T03:21:16.427Z,60.20
2022-09-02T03:26:13.492Z,60.33
2022-09-02T03:31:04.366Z,59.57
2022-09-02T03:35:55.308Z,59.76
2022-09-02T03:40:48.989Z,59.99
2022-09-02T03:45:42.153Z,59.93
2022-09-02T03:50:37.066Z,60.99
2022-09-02T03:55:28.663Z,61.30
2022-09-02T04:00:24.307Z,61.65
2022-09-02T04:05:16.013Z,61.76
2022-09-02T04:10:08.873Z,61.84
2022-09-02T04:15:01.070Z,62.12
2022-09-02T04:19:53.900Z,61.91
2022-09-02T04:24:44.217Z,62.30
2022-09-02T04:29:34.839Z,62.19
2022-09-02T04:34:25.012Z,62.61
2022-09-02T04:39:18.855Z,62.91
2022-09-02T04:44:10.126Z,63.68
2022-09-02T04:49:04.121Z,63.57
2022-09-02T04:53:56.042Z,62.90
2022-09-02T04:58:50.567Z,62.91
2022-09-02T05:03:44.128Z,63.03
2022-09-02T05:08:36.684Z,63.86
2022-09-02T05:13:29.579Z,63.46
2022-09-02T05:18:24.592Z,62.89
2022-09-02T05:23:16.691Z,63.09
2022-09-02T05:28:09.275Z,62.81
2022-09-02T05:33:00.366Z,62.75
2022-09-02T05:37:58.684Z,63.54
2022-09-02T05:42:51.372Z,64.11
2022-09-02T05:47:41.787Z,63.67
2022-09-02T05:52:32.664Z,64.76
2022-09-02T05:57:26.147Z,63.67
2022-09-02T06:02:21.460Z,63.47
2022-09-02T06:07:13.755Z,63.19
2022-09-02T06:12:09.016Z,63.54
2022-09-02T06:17:03.179Z,64.58
2022-09-02T06:22:11.605Z,64.49
2022-09-02T06:27:03.497Z,63.88
2022-09-02T06:31:55.306Z,64.19
2022-09-02T06:36:51.942Z,63.98
2022-09-02T06:41:44.624Z,64.13
2022-09-02T06:46:38.003Z,64.16
2022-09-02T06:51:30.562Z,63.61
2022-09-02T06:56:26.159Z,63.59
2022-09-02T07:01:21.823Z,62.58
2022-09-02T07:06:13.224Z,64.44
2022-09-02T07:11:09.479Z,63.56
2022-09-02T07:16:01.659Z,63.83
2022-09-02T07:20:52.027Z,64.09
2022-09-02T07:25:46.837Z,64.02
2022-09-02T07:30:37.242Z,63.92
2022-09-02T07:35:35.893Z,63.52
2022-09-02T07:40:26.811Z,64.06
2022-09-02T07:45:18.377Z,64.39
2022-09-02T07:50:20.250Z,64.12
2022-09-02T07:55:18.901Z,63.83
2022-09-02T08:00:12.713Z,63.84
2022-09-02T08:05:10.185Z,64.24
2022-09-02T08:10:01.401Z,63.44
2022-09-02T08:14:54.574Z,62.84
2022-09-02T08:19:45.207Z,62.14
2022-09-02T08:24:35.512Z,62.92
2022-09-02T08:29:25.051Z,62.03
2022-09-02T08:34:17.748Z,61.92
2022-09-02T08:39:08.108Z,61.78
2022-09-02T08:43:59.982Z,62.33
2022-09-02T08:48:53.021Z,61.61
2022-09-02T08:53:51.317Z,60.99
2022-09-02T08:58:42.699Z,60.38
2022-09-02T09:03:37.033Z,59.03
2022-09-02T09:08:31.845Z,58.63
2022-09-02T09:13:40.766Z,59.37
2022-09-02T09:18:35.546Z,58.12
2022-09-02T09:23:34.000Z,57.38
2022-09-02T09:28:28.273Z,56.73
2022-09-02T09:33:24.245Z,56.90
2022-09-02T09:38:15.717Z,55.96
2022-09-02T09:43:16.315Z,55.39
2022-09-02T09:48:19.324Z,54.94
2022-09-02T09:53:19.130Z,53.84
2022-09-02T09:58:12.582Z,51.39
2022-09-02T10:03:04.087Z,52.20
2022-09-02T10:07:59.447Z,52.18
2022-09-02T10:12:50.416Z,50.40
2022-09-02T10:17:44.629Z,51.50
2022-09-02T10:22:58.434Z,49.91
2022-09-02T10:27:56.363Z,47.68
2022-09-02T10:32:56.212Z,48.82
2022-09-02T10:38:01.027Z,49.89
2022-09-02T10:43:00.080Z,48.46
2022-09-02T10:47:54.788Z,46.78
2022-09-02T10:52:56.791Z,46.56
2022-09-02T10:57:49.524Z,47.97
2022-09-02T11:02:45.024Z,44.09
2022-09-02T11:07:39.402Z,46.99
2022-09-02T11:12:32.057Z,44.68
2022-09-02T11:17:24.913Z,47.20
2022-09-02T11:22:25.517Z,45.07
2022-09-02T11:27:39.018Z,44.72
2022-09-02T11:32:34.444Z,45.21
2022-09-02T11:37:33.002Z,45.46
2022-09-02T11:42:29.878Z,45.16
2022-09-02T11:47:45.540Z,43.59
2022-09-02T11:52:58.134Z,41.32
2022-09-02T11:57:54.346Z,41.00
2022-09-02T12:02:48.572Z,40.71
2022-09-02T12:07:52.247Z,42.78
2022-09-02T12:12:56.756Z,40.89
2022-09-02T12:18:17.405Z,39.87
2022-09-02T12:23:10.436Z,36.34
2022-09-02T12:28:13.696Z,37.97
2022-09-02T12:33:15.226Z,37.02
2022-09-02T12:38:19.589Z,39.05
2022-09-02T12:43:27.839Z,40.34
2022-09-02T12:48:30.311Z,37.22
2022-09-02T12:53:32.771Z,36.85
2022-09-02T12:58:25.570Z,35.38
2022-09-02T13:03:28.369Z,38.02
2022-09-02T13:08:32.504Z,36.95
2022-09-02T13:13:44.625Z,37.58
2022-09-02T13:18:54.503Z,37.11
2022-09-02T13:23:55.517Z,34.70
2022-09-02T13:29:04.705Z,35.29
2022-09-02T13:34:05.606Z,36.07
2022-09-02T13:38:56.301Z,35.47
2022-09-02T13:43:46.977Z,33.23
2022-09-02T13:48:41.094Z,32.78
2022-09-02T13:53:49.258Z,31.54
2022-09-02T13:58:47.555Z,33.03
2022-09-02T14:03:37.440Z,33.94
2022-09-02T14:08:29.409Z,32.59
2022-09-02T14:13:22.206Z,34.56
2022-09-02T14:18:14.522Z,30.50
2022-09-02T14:23:08.143Z,35.07
2022-09-02T14:27:58.830Z,35.09
2022-09-02T14:32:50.896Z,33.48
2022-09-02T14:37:51.641Z,33.34
2022-09-02T14:42:48.317Z,32.51
2022-09-02T14:47:40.004Z,33.86
2022-09-02T14:52:33.510Z,32.86
2022-09-02T14:57:28.428Z,32.89
2022-09-02T15:02:33.681Z,31.59
2022-09-02T15:07:23.283Z,33.78
2022-09-02T15:12:20.057Z,31.92
2022-09-02T15:17:12.092Z,33.18
2022-09-02T15:22:02.479Z,32.06
2022-09-02T15:26:53.349Z,32.10
2022-09-02T15:31:48.396Z,32.31
2022-09-02T15:36:40.991Z,33.86
2022-09-02T15:41:32.306Z,33.26
2022-09-02T15:46:24.131Z,33.22
2022-09-02T15:51:18.062Z,33.31
2022-09-02T15:56:08.669Z,34.27
2022-09-02T16:00:59.124Z,33.90
2022-09-02T16:05:49.385Z,34.95
2022-09-02T16:10:42.493Z,34.54
2022-09-02T16:15:34.468Z,36.01
2022-09-02T16:20:25.761Z,36.70
2022-09-02T16:25:15.641Z,36.71
2022-09-02T16:30:08.963Z,35.95
2022-09-02T16:34:59.099Z,33.80
2022-09-02T16:39:50.051Z,34.56
2022-09-02T16:44:41.749Z,37.10
2022-09-02T16:49:34.830Z,36.25
2022-09-02T16:54:30.681Z,37.61
2022-09-02T16:59:22.384Z,37.53
2022-09-02T17:04:17.176Z,37.54
2022-09-02T17:09:10.582Z,37.00
2022-09-02T17:14:02.285Z,37.58
2022-09-02T17:18:53.788Z,36.64
2022-09-02T17:23:45.164Z,36.75
2022-09-02T17:28:47.043Z,37.04
2022-09-02T17:33:37.245Z,37.95
2022-09-02T17:38:27.656Z,38.23
2022-09-02T17:43:18.069Z,38.72
2022-09-02T17:48:35.403Z,39.65
2022-09-02T17:53:24.306Z,38.69
2022-09-02T17:58:16.990Z,40.30
2022-09-02T18:03:28.978Z,40.63
2022-09-02T18:08:28.598Z,41.06
2022-09-02T18:13:22.251Z,40.41
2022-09-02T18:18:14.154Z,42.14
2022-09-02T18:23:19.393Z,40.60
2022-09-02T18:28:22.908Z,43.34
2022-09-02T18:33:28.092Z,41.70
2022-09-02T18:38:30.272Z,42.80
2022-09-02T18:43:27.734Z,43.85
2022-09-02T18:48:19.963Z,44.33
2022-09-02T18:53:13.292Z,43.39
2022-09-02T18:58:09.217Z,43.97
2022-09-02T19:03:05.507Z,44.41
2022-09-02T19:08:13.357Z,44.74
2022-09-02T19:13:04.861Z,44.30
2022-09-02T19:17:55.359Z,44.51
2022-09-02T19:22:51.601Z,44.19
2022-09-02T19:27:43.420Z,44.80
2022-09-02T19:32:35.111Z,44.50
2022-09-02T19:37:26.101Z,44.59
2022-09-02T19:42:23.966Z,44.50
2022-09-02T19:48:03.110Z,43.99
2022-09-02T19:52:25.625Z,44.56
2022-09-02T19:57:18.713Z,44.46
2022-09-02T20:02:09.035Z,44.61
2022-09-02T20:07:00.444Z,44.71
2022-09-02T20:11:51.445Z,44.99
2022-09-02T20:16:44.948Z,45.47
2022-09-02T20:21:38.609Z,43.87
2022-09-02T20:26:35.429Z,44.23
2022-09-02T20:31:32.109Z,44.08
2022-09-02T20:36:32.071Z,46.42
2022-09-02T20:41:27.601Z,46.51
2022-09-02T20:46:24.860Z,47.04
2022-09-02T20:51:19.457Z,47.35
2022-09-02T20:56:20.944Z,46.29
2022-09-02T21:01:11.915Z,46.96
2022-09-02T21:06:03.706Z,47.47
2022-09-02T21:10:57.302Z,45.93
2022-09-02T21:15:52.234Z,46.79
2022-09-02T21:20:47.329Z,46.54
2022-09-02T21:25:44.169Z,46.75
2022-09-02T21:30:38.891Z,46.02
2022-09-02T21:35:35.040Z,47.07
2022-09-02T21:40:28.940Z,46.75
2022-09-02T21:45:22.299Z,47.01
2022-09-02T21:50:18.688Z,47.03
2022-09-02T21:55:22.287Z,47.16
2022-09-02T22:00:16.134Z,47.78
2022-09-02T22:05:09.819Z,47.13
2022-09-02T22:10:05.998Z,47.34
2022-09-02T22:15:03.116Z,47.76
2022-09-02T22:19:58.033Z,48.18
2022-09-02T22:24:48.530Z,48.10
2022-09-02T22:29:44.509Z,48.12
2022-09-02T22:34:42.415Z,47.25
2022-09-02T22:39:36.058Z,47.83
2022-09-02T22:44:55.147Z,47.49
2022-09-02T22:50:10.738Z,48.03
2022-09-02T22:55:00.847Z,48.15
2022-09-02T23:00:02.062Z,47.92
2022-09-02T23:05:06.508Z,48.09
2022-09-02T23:09:59.236Z,48.26
2022-09-02T23:14:57.732Z,48.13
2022-09-02T23:19:53.959Z,48.73
2022-09-02T23:24:49.760Z,48.62
2022-09-02T23:29:41.709Z,48.90
2022-09-02T23:34:41.684Z,49.24
2022-09-02T23:39:44.454Z,49.51
2022-09-02T23:44:37.250Z,49.29
2022-09-02T23:49:33.982Z,49.75
2022-09-02T23:54:32.245Z,49.80
2022-09-02T23:59:30.675Z,50.02
